Time;durP1;ratioP1;P1;durP2;ratioP2;P2;SDS_P1;SDS_P2;PMS_P1;PMS_P2;Temp;Humidity;BMP_temperature;BMP_pressure;BME280_temperature;BME280_humidity;BME280_pressure;Samples;Min_cycle;Max_cycle;Signal;HPM_P1;HPM_P2
2023/08/12 00:01:05;;;;;;;6.18;3.03;;;19.60;86.10;;;;;;5036020;28;20398;-68
2023/08/12 00:03:30;;;;;;;6.53;3.20;;;19.60;86.20;;;;;;5027064;28;20034;-67
2023/08/12 00:05:56;;;;;;;5.00;2.70;;;19.60;86.10;;;;;;5023682;28;20083;-67
2023/08/12 00:08:22;;;;;;;8.32;3.38;;;19.60;86.30;;;;;;5043442;28;20033;-67
2023/08/12 00:10:47;;;;;;;14.05;2.92;;;19.60;86.30;;;;;;5044474;28;20033;-67
2023/08/12 00:13:17;;;;;;;5.35;2.60;;;19.60;86.10;;;;;;5026853;28;20029;-67
2023/08/12 00:15:43;;;;;;;6.47;2.55;;;19.50;86.30;;;;;;5021211;28;20387;-67
2023/08/12 00:18:08;;;;;;;7.70;3.10;;;19.50;86.40;;;;;;5027474;28;20045;-67
2023/08/12 00:20:34;;;;;;;5.05;2.80;;;19.50;86.70;;;;;;5033555;28;20029;-67
2023/08/12 00:22:59;;;;;;;5.28;2.95;;;19.50;86.50;;;;;;5030734;28;20046;-67
2023/08/12 00:25:25;;;;;;;8.57;3.00;;;19.50;86.60;;;;;;5032621;28;20402;-67
2023/08/12 00:27:50;;;;;;;4.88;2.85;;;19.40;86.60;;;;;;5037796;28;20038;-67
2023/08/12 00:30:16;;;;;;;6.05;3.10;;;19.40;86.80;;;;;;5036216;28;20034;-67
2023/08/12 00:32:41;;;;;;;5.68;2.72;;;19.40;86.80;;;;;;5028272;28;20029;-67
2023/08/12 00:35:07;;;;;;;4.60;2.85;;;19.40;86.60;;;;;;5027627;28;20087;-67
2023/08/12 00:37:33;;;;;;;6.43;3.10;;;19.40;86.60;;;;;;5027282;28;20493;-67
2023/08/12 00:39:58;;;;;;;6.03;3.00;;;19.40;86.50;;;;;;5034691;28;20033;-67
2023/08/12 00:42:23;;;;;;;5.10;2.75;;;19.40;86.80;;;;;;5023019;28;20533;-67
2023/08/12 00:44:49;;;;;;;7.72;2.90;;;19.40;87.00;;;;;;5029579;28;20230;-67
2023/08/12 00:47:16;;;;;;;6.55;3.05;;;19.40;87.00;;;;;;5029127;28;20074;-67
2023/08/12 00:49:45;;;;;;;5.05;2.92;;;19.30;86.90;;;;;;5037376;28;20479;-67
2023/08/12 00:52:12;;;;;;;6.80;2.80;;;19.30;87.10;;;;;;5021240;28;20069;-67
2023/08/12 00:54:38;;;;;;;6.45;3.08;;;19.30;87.30;;;;;;5029639;28;20025;-67
2023/08/12 00:57:05;;;;;;;7.32;2.70;;;19.30;87.10;;;;;;5021829;28;20088;-67
2023/08/12 00:59:32;;;;;;;5.97;2.92;;;19.30;86.80;;;;;;5027395;28;20362;-67
2023/08/12 01:01:58;;;;;;;7.35;3.38;;;19.30;86.80;;;;;;5032490;28;20031;-67
2023/08/12 01:04:23;;;;;;;8.45;2.97;;;19.30;86.90;;;;;;5026843;28;20397;-67
2023/08/12 01:06:49;;;;;;;5.32;3.15;;;19.30;86.70;;;;;;5030760;28;20029;-67
2023/08/12 01:09:14;;;;;;;4.90;2.80;;;19.40;86.60;;;;;;5030929;28;20040;-67
2023/08/12 01:11:52;;;;;;;6.63;2.83;;;19.30;86.80;;;;;;5018689;28;20044;-67
2023/08/12 01:14:26;;;;;;;6.63;2.97;;;19.20;86.90;;;;;;5022243;28;20033;-67
2023/08/12 01:16:59;;;;;;;7.18;3.00;;;19.20;87.10;;;;;;5018314;28;20191;-67
2023/08/12 01:19:36;;;;;;;5.00;2.97;;;19.20;87.00;;;;;;5019219;28;20087;-67
2023/08/12 01:22:04;;;;;;;6.80;3.10;;;19.20;86.80;;;;;;5032769;28;20049;-67
2023/08/12 01:24:46;;;;;;;4.22;2.55;;;19.20;87.20;;;;;;5029519;28;20409;-67
2023/08/12 01:27:14;;;;;;;5.80;2.80;;;19.10;87.30;;;;;;5027879;28;20045;-67
2023/08/12 01:29:44;;;;;;;6.25;3.30;;;19.10;87.80;;;;;;5013849;28;20401;-67
2023/08/12 01:32:32;;;;;;;4.90;3.20;;;19.10;88.00;;;;;;5020575;28;20121;-67
2023/08/12 01:35:05;;;;;;;7.55;3.10;;;19.00;87.90;;;;;;5027924;28;20025;-67
2023/08/12 01:37:33;;;;;;;5.03;3.00;;;18.90;88.70;;;;;;5030491;28;20047;-67
2023/08/12 01:40:01;;;;;;;6.30;3.42;;;18.80;89.20;;;;;;5040297;28;20033;-68
2023/08/12 01:42:28;;;;;;;7.30;3.50;;;18.80;89.10;;;;;;5021807;28;20471;-67
2023/08/12 01:44:54;;;;;;;7.05;3.60;;;18.70;89.40;;;;;;5025431;28;20230;-67
2023/08/12 01:47:19;;;;;;;6.45;3.22;;;18.70;89.70;;;;;;5025094;28;20056;-67
2023/08/12 01:49:45;;;;;;;9.57;3.38;;;18.70;89.40;;;;;;5025396;28;20021;-67
2023/08/12 01:52:10;;;;;;;5.85;3.20;;;18.60;90.10;;;;;;5044393;28;20476;-67
2023/08/12 01:54:36;;;;;;;6.93;3.85;;;18.60;90.20;;;;;;5038620;28;20041;-67
2023/08/12 01:57:05;;;;;;;4.90;2.83;;;18.50;90.00;;;;;;5033671;28;20511;-67
2023/08/12 01:59:34;;;;;;;6.65;3.10;;;18.50;90.30;;;;;;5031614;28;20037;-67
2023/08/12 02:01:59;;;;;;;6.38;3.88;;;18.50;90.20;;;;;;5023570;28;20482;-67
2023/08/12 02:04:25;;;;;;;6.90;3.30;;;18.50;90.40;;;;;;5027799;28;20036;-67
2023/08/12 02:06:51;;;;;;;6.40;3.00;;;18.50;90.20;;;;;;5028272;28;20091;-67
2023/08/12 02:09:16;;;;;;;8.30;3.70;;;18.40;90.70;;;;;;5026181;28;20080;-67
2023/08/12 02:11:42;;;;;;;6.00;3.25;;;18.40;90.60;;;;;;5045786;28;20022;-67
2023/08/12 02:14:07;;;;;;;5.30;3.53;;;18.40;90.80;;;;;;5038575;28;20057;-68
2023/08/12 02:16:33;;;;;;;7.90;3.40;;;18.40;91.00;;;;;;5033222;28;20091;-67
2023/08/12 02:18:58;;;;;;;4.65;3.35;;;18.30;90.90;;;;;;5029017;28;20466;-67
2023/08/12 02:21:24;;;;;;;6.53;3.50;;;18.30;91.00;;;;;;5027240;28;20038;-67
2023/08/12 02:23:49;;;;;;;5.30;3.40;;;18.40;91.40;;;;;;5038092;28;20028;-67
2023/08/12 02:26:15;;;;;;;7.35;3.88;;;18.30;91.20;;;;;;5029845;28;20030;-67
2023/08/12 02:28:41;;;;;;;7.63;3.63;;;18.30;91.30;;;;;;5033723;28;20108;-67
2023/08/12 02:31:06;;;;;;;6.18;3.22;;;18.30;91.50;;;;;;5024141;28;20149;-67
2023/08/12 02:33:32;;;;;;;5.95;3.33;;;18.30;91.40;;;;;;5036771;28;20478;-67
2023/08/12 02:35:57;;;;;;;5.70;3.70;;;18.30;91.50;;;;;;5032796;28;20031;-67
2023/08/12 02:38:23;;;;;;;4.55;2.90;;;18.30;91.50;;;;;;5037624;28;20408;-67
2023/08/12 02:40:49;;;;;;;5.65;3.20;;;18.30;91.40;;;;;;5023475;28;20022;-67
2023/08/12 02:43:15;;;;;;;5.15;3.20;;;18.40;91.40;;;;;;5026852;28;20082;-67
2023/08/12 02:45:41;;;;;;;6.85;3.38;;;18.40;91.30;;;;;;5028402;28;20045;-67
2023/08/12 02:48:06;;;;;;;7.90;3.80;;;18.40;91.80;;;;;;5028614;28;20110;-67
2023/08/12 02:50:32;;;;;;;8.25;3.70;;;18.40;92.40;;;;;;5029214;28;20041;-67
2023/08/12 02:52:57;;;;;;;5.13;3.47;;;18.40;92.20;;;;;;5037208;28;20537;-67
2023/08/12 02:55:23;;;;;;;6.68;3.80;;;18.40;91.80;;;;;;5027411;28;20049;-66
2023/08/12 02:57:48;;;;;;;6.55;3.85;;;18.40;91.80;;;;;;5015756;28;20125;-67
2023/08/12 03:00:14;;;;;;;7.05;3.72;;;18.50;91.70;;;;;;5027513;28;20067;-67
2023/08/12 03:02:42;;;;;;;7.70;3.67;;;18.50;91.80;;;;;;5031374;28;20072;-67
2023/08/12 03:05:08;;;;;;;7.22;3.45;;;18.50;91.70;;;;;;5027496;28;20109;-67
2023/08/12 03:07:34;;;;;;;6.00;3.03;;;18.40;91.30;;;;;;5029162;28;20236;-68
2023/08/12 03:09:59;;;;;;;5.63;3.40;;;18.40;91.20;;;;;;5036104;28;20049;-67
2023/08/12 03:12:25;;;;;;;5.40;3.30;;;18.30;92.10;;;;;;5035256;28;20037;-67
2023/08/12 03:14:50;;;;;;;7.32;3.55;;;18.30;92.30;;;;;;5028197;28;20312;-67
2023/08/12 03:17:15;;;;;;;5.20;3.45;;;18.40;91.80;;;;;;5030708;28;20030;-68
2023/08/12 03:19:41;;;;;;;11.32;3.75;;;18.40;92.00;;;;;;5029458;28;20033;-67
2023/08/12 03:22:07;;;;;;;7.00;3.95;;;18.40;92.00;;;;;;5029754;28;20048;-67
2023/08/12 03:24:32;;;;;;;6.07;3.00;;;18.30;92.60;;;;;;5016448;28;20531;-67
2023/08/12 03:26:58;;;;;;;6.10;3.13;;;18.30;92.70;;;;;;5018656;28;20029;-67
2023/08/12 03:29:24;;;;;;;8.82;4.00;;;18.20;92.80;;;;;;5017956;28;20496;-67
2023/08/12 03:31:50;;;;;;;7.28;3.45;;;18.20;92.80;;;;;;5028238;28;20087;-67
2023/08/12 03:34:15;;;;;;;9.77;3.75;;;18.20;92.50;;;;;;5027709;28;20033;-67
2023/08/12 03:36:42;;;;;;;5.75;3.80;;;18.30;92.50;;;;;;5029357;28;20512;-67
2023/08/12 03:39:07;;;;;;;6.50;3.65;;;18.20;92.60;;;;;;5013142;28;20042;-67
2023/08/12 03:41:33;;;;;;;6.40;3.75;;;18.30;92.70;;;;;;5028915;28;20036;-68
2023/08/12 03:43:59;;;;;;;7.57;3.90;;;18.20;92.70;;;;;;5017787;28;20037;-67
2023/08/12 03:46:24;;;;;;;6.75;3.67;;;18.20;92.90;;;;;;5024345;28;20049;-67
2023/08/12 03:48:50;;;;;;;10.07;3.83;;;18.20;92.70;;;;;;5029080;28;20037;-67
2023/08/12 03:51:15;;;;;;;5.53;3.83;;;18.20;92.90;;;;;;5035757;28;20032;-67
2023/08/12 03:53:40;;;;;;;7.43;4.00;;;18.10;93.20;;;;;;5041503;28;20123;-67
2023/08/12 03:56:06;;;;;;;8.48;3.92;;;18.10;93.20;;;;;;5028721;28;20042;-67
2023/08/12 03:58:32;;;;;;;7.32;4.10;;;18.20;92.90;;;;;;5025892;28;20474;-67
2023/08/12 04:00:57;;;;;;;6.82;3.97;;;18.10;92.80;;;;;;5025552;28;20034;-67
2023/08/12 04:03:23;;;;;;;7.57;3.63;;;18.10;92.90;;;;;;5040200;28;20441;-67
2023/08/12 04:05:52;;;;;;;9.23;4.60;;;18.10;92.70;;;;;;5038401;28;20037;-67
2023/08/12 04:08:19;;;;;;;6.38;4.03;;;18.10;93.20;;;;;;5027265;28;20047;-67
2023/08/12 04:10:47;;;;;;;12.10;3.85;;;18.10;93.20;;;;;;5029402;28;20116;-67
2023/08/12 04:13:13;;;;;;;6.68;4.38;;;18.00;93.60;;;;;;5031006;28;20034;-67
2023/08/12 04:15:38;;;;;;;7.22;4.38;;;18.10;93.40;;;;;;5026278;28;20036;-67
2023/08/12 04:18:04;;;;;;;6.78;3.90;;;18.10;93.50;;;;;;5023651;28;20112;-67
2023/08/12 04:20:30;;;;;;;6.15;3.60;;;18.10;93.10;;;;;;5028410;28;20038;-67
2023/08/12 04:22:55;;;;;;;6.40;4.40;;;18.10;92.90;;;;;;5027604;28;20039;-67
2023/08/12 04:25:22;;;;;;;6.88;3.70;;;18.10;92.90;;;;;;5020008;28;20061;-67
2023/08/12 04:27:49;;;;;;;7.38;3.75;;;18.20;93.10;;;;;;5019923;28;20115;-65
2023/08/12 04:30:15;;;;;;;6.43;3.63;;;18.20;93.00;;;;;;5023870;28;20029;-65
2023/08/12 04:32:41;;;;;;;8.05;4.47;;;18.30;93.10;;;;;;5026363;28;20034;-67
2023/08/12 04:35:07;;;;;;;8.20;4.43;;;18.30;93.50;;;;;;5033950;28;20048;-66
2023/08/12 04:37:32;;;;;;;6.28;4.00;;;18.40;93.40;;;;;;5034407;28;20033;-66
2023/08/12 04:39:58;;;;;;;6.50;3.72;;;18.40;93.10;;;;;;5036740;28;20373;-66
2023/08/12 04:42:24;;;;;;;6.47;4.32;;;18.40;93.10;;;;;;5041758;28;20033;-66
2023/08/12 04:44:49;;;;;;;6.97;4.20;;;18.40;93.20;;;;;;5029468;28;20179;-65
2023/08/12 04:47:15;;;;;;;9.13;4.57;;;18.40;93.30;;;;;;5037611;28;20021;-66
2023/08/12 04:49:41;;;;;;;7.65;4.30;;;18.40;93.10;;;;;;5039273;28;20034;-65
2023/08/12 04:52:06;;;;;;;8.23;3.97;;;18.40;93.20;;;;;;5031998;28;20382;-66
2023/08/12 04:54:33;;;;;;;7.88;5.13;;;18.50;93.20;;;;;;5033587;28;20029;-66
2023/08/12 04:56:59;;;;;;;14.05;5.10;;;18.50;93.10;;;;;;5034441;28;20041;-66
2023/08/12 04:59:25;;;;;;;12.82;6.50;;;18.50;93.00;;;;;;5020233;28;20030;-65
2023/08/12 05:01:50;;;;;;;9.07;5.97;;;18.50;93.10;;;;;;5023652;28;20033;-66
2023/08/12 05:04:16;;;;;;;10.88;6.60;;;18.50;93.10;;;;;;5040501;28;20068;-66
2023/08/12 05:06:41;;;;;;;13.25;7.07;;;18.50;93.20;;;;;;5041296;28;20100;-65
2023/08/12 05:09:07;;;;;;;7.85;6.63;;;18.40;93.40;;;;;;5037071;28;20029;-66
2023/08/12 05:11:32;;;;;;;10.73;7.28;;;18.50;93.70;;;;;;5044730;28;20065;-66
2023/08/12 05:13:58;;;;;;;12.35;7.78;;;18.50;93.80;;;;;;5029958;28;20033;-66
2023/08/12 05:16:23;;;;;;;12.43;8.27;;;18.50;94.10;;;;;;5024051;28;20052;-66
2023/08/12 05:18:48;;;;;;;12.60;8.48;;;18.30;94.40;;;;;;5029533;28;20476;-66
2023/08/12 05:21:14;;;;;;;13.07;8.82;;;18.30;95.00;;;;;;5037609;28;20033;-66
2023/08/12 05:23:39;;;;;;;12.30;8.95;;;18.20;95.20;;;;;;5033449;28;20156;-66
2023/08/12 05:26:05;;;;;;;11.98;9.07;;;18.20;95.50;;;;;;5022855;28;20049;-65
2023/08/12 05:28:30;;;;;;;13.55;10.93;;;18.10;95.90;;;;;;5026897;28;20392;-66
2023/08/12 05:30:56;;;;;;;15.90;10.80;;;18.10;96.00;;;;;;5024165;28;20115;-66
2023/08/12 05:33:22;;;;;;;14.93;11.73;;;18.00;96.20;;;;;;5020202;28;20033;-67
2023/08/12 05:35:48;;;;;;;17.38;12.10;;;18.00;96.40;;;;;;5031432;28;20094;-66
2023/08/12 05:38:13;;;;;;;18.90;12.43;;;18.00;96.60;;;;;;5032052;28;20033;-67
2023/08/12 05:40:39;;;;;;;18.30;13.20;;;18.00;96.80;;;;;;5030121;28;20521;-66
2023/08/12 05:43:04;;;;;;;18.75;12.30;;;18.00;96.90;;;;;;5032058;28;20030;-66
2023/08/12 05:45:30;;;;;;;15.68;12.20;;;18.00;97.10;;;;;;5029143;28;20037;-66
2023/08/12 05:47:56;;;;;;;16.05;11.85;;;18.00;97.20;;;;;;5027251;28;20067;-66
2023/08/12 05:50:21;;;;;;;16.85;12.48;;;18.10;97.20;;;;;;5035938;28;20025;-66
2023/08/12 05:52:47;;;;;;;17.17;13.80;;;18.10;97.30;;;;;;5018001;28;20080;-66
2023/08/12 05:55:12;;;;;;;18.25;13.02;;;18.20;97.40;;;;;;5031862;28;20041;-67
2023/08/12 05:57:38;;;;;;;15.35;12.88;;;18.10;97.30;;;;;;5018244;28;20029;-66
2023/08/12 06:00:04;;;;;;;16.40;12.52;;;18.20;97.40;;;;;;5020139;28;20453;-67
2023/08/12 06:02:29;;;;;;;17.48;14.00;;;18.30;97.50;;;;;;5024463;28;20100;-67
2023/08/12 06:04:55;;;;;;;17.75;14.60;;;18.20;97.50;;;;;;5022241;28;20469;-67
2023/08/12 06:07:20;;;;;;;18.35;13.60;;;18.30;97.60;;;;;;5025854;28;20034;-67
2023/08/12 06:09:46;;;;;;;19.05;15.30;;;18.30;97.50;;;;;;5021333;28;20040;-67
2023/08/12 06:12:11;;;;;;;25.42;16.17;;;18.30;97.60;;;;;;5029190;28;20032;-68
2023/08/12 06:14:38;;;;;;;21.48;15.80;;;18.40;97.60;;;;;;5029964;28;21041;-68
2023/08/12 06:17:03;;;;;;;25.48;16.98;;;18.40;97.60;;;;;;5030113;28;20037;-68
2023/08/12 06:19:29;;;;;;;21.85;16.10;;;18.50;97.60;;;;;;5033206;28;20033;-69
2023/08/12 06:21:54;;;;;;;25.38;18.20;;;18.60;97.60;;;;;;5028364;28;20430;-68
2023/08/12 06:24:20;;;;;;;20.85;16.38;;;18.60;97.30;;;;;;5029636;28;20058;-68
2023/08/12 06:26:45;;;;;;;20.88;15.38;;;18.60;97.30;;;;;;5024712;28;20146;-68
2023/08/12 06:29:11;;;;;;;19.42;14.20;;;18.70;97.30;;;;;;5025129;28;20128;-68
2023/08/12 06:31:36;;;;;;;22.00;16.20;;;18.80;97.30;;;;;;5036210;28;20033;-68
2023/08/12 06:34:02;;;;;;;20.77;15.43;;;18.90;97.30;;;;;;5030989;28;20041;-68
2023/08/12 06:36:28;;;;;;;24.35;17.25;;;18.90;97.50;;;;;;5044493;28;20063;-69
2023/08/12 06:38:53;;;;;;;26.98;16.98;;;19.00;97.50;;;;;;5036239;28;20038;-68
2023/08/12 06:41:19;;;;;;;21.05;15.98;;;19.00;97.50;;;;;;5036402;28;20489;-69
2023/08/12 06:43:44;;;;;;;21.13;16.50;;;19.00;97.40;;;;;;5026809;28;20034;-69
2023/08/12 06:46:10;;;;;;;23.35;15.43;;;19.00;97.30;;;;;;5041404;28;20045;-68
2023/08/12 06:48:35;;;;;;;23.70;16.63;;;19.00;97.20;;;;;;5026376;28;20449;-68
2023/08/12 06:51:06;;;;;;;21.48;17.17;;;19.10;97.30;;;;;;5036340;28;20021;-68
2023/08/12 06:53:32;;;;;;;22.45;16.02;;;19.20;97.30;;;;;;5023565;28;20021;-68
2023/08/12 06:55:57;;;;;;;23.98;16.45;;;19.10;97.10;;;;;;5022506;28;20057;-68
2023/08/12 06:58:23;;;;;;;27.25;17.17;;;19.20;97.20;;;;;;5026462;28;20061;-68
2023/08/12 07:00:48;;;;;;;22.58;16.52;;;19.30;97.30;;;;;;5024664;28;20036;-69
2023/08/12 07:03:14;;;;;;;25.88;16.13;;;19.40;97.20;;;;;;5023035;28;20458;-69
2023/08/12 07:05:39;;;;;;;24.77;16.65;;;19.50;97.20;;;;;;5035457;28;20375;-69
2023/08/12 07:08:05;;;;;;;25.02;16.48;;;19.60;97.20;;;;;;5033914;28;20037;-68
2023/08/12 07:10:30;;;;;;;25.42;16.83;;;19.60;96.80;;;;;;5034225;28;20065;-68
2023/08/12 07:12:56;;;;;;;22.15;14.52;;;19.70;96.80;;;;;;5020869;28;20115;-68
2023/08/12 07:15:21;;;;;;;24.35;14.98;;;19.90;96.70;;;;;;5021651;28;20041;-68
2023/08/12 07:17:47;;;;;;;18.83;13.55;;;19.90;96.60;;;;;;5024303;28;20040;-69
2023/08/12 07:20:12;;;;;;;20.77;13.10;;;19.90;96.30;;;;;;5024182;28;20432;-69
2023/08/12 07:22:38;;;;;;;20.75;13.75;;;19.90;96.00;;;;;;5024412;28;20032;-68
2023/08/12 07:25:03;;;;;;;19.10;13.68;;;19.90;96.40;;;;;;5029434;28;20064;-68
2023/08/12 07:27:29;;;;;;;21.42;12.98;;;19.90;96.30;;;;;;5019323;28;20037;-68
2023/08/12 07:29:54;;;;;;;22.30;13.77;;;19.90;95.90;;;;;;5023756;28;20115;-68
2023/08/12 07:32:20;;;;;;;19.85;13.43;;;19.90;95.70;;;;;;5040348;28;20047;-67
2023/08/12 07:34:46;;;;;;;17.42;13.02;;;19.90;95.70;;;;;;5028359;28;20044;-68
2023/08/12 07:37:11;;;;;;;18.83;13.38;;;19.90;95.90;;;;;;5039500;28;20037;-71
2023/08/12 07:39:37;;;;;;;18.27;13.43;;;20.00;95.90;;;;;;5024784;28;20079;-69
2023/08/12 07:42:03;;;;;;;16.75;12.82;;;20.00;95.90;;;;;;5025183;28;20477;-67
2023/08/12 07:44:28;;;;;;;21.95;14.25;;;20.10;96.00;;;;;;5014236;28;20036;-68
2023/08/12 07:46:54;;;;;;;22.63;13.77;;;20.20;96.20;;;;;;5028124;28;20037;-67
2023/08/12 07:49:19;;;;;;;22.00;13.68;;;20.30;96.30;;;;;;5027784;28;20037;-68
2023/08/12 07:51:45;;;;;;;21.42;14.43;;;20.20;95.90;;;;;;5024445;28;20433;-67
2023/08/12 07:54:10;;;;;;;15.70;13.02;;;20.40;96.10;;;;;;5024940;28;20037;-68
2023/08/12 07:56:35;;;;;;;17.40;13.32;;;20.30;95.60;;;;;;5025403;28;20103;-68
2023/08/12 07:59:01;;;;;;;18.85;13.32;;;20.30;95.50;;;;;;5018830;28;20163;-67
2023/08/12 08:01:26;;;;;;;20.70;14.50;;;20.40;96.00;;;;;;5022660;28;20039;-68
2023/08/12 08:03:52;;;;;;;23.27;14.05;;;20.50;95.10;;;;;;5032956;28;20048;-67
2023/08/12 08:06:17;;;;;;;20.58;13.00;;;20.60;95.30;;;;;;5032366;28;20030;-67
2023/08/12 08:08:43;;;;;;;22.50;12.85;;;20.60;95.20;;;;;;5012896;28;20034;-68
2023/08/12 08:11:08;;;;;;;21.00;12.50;;;20.70;94.70;;;;;;5019191;28;20428;-67
2023/08/12 08:13:34;;;;;;;23.17;12.15;;;20.80;94.80;;;;;;5016064;28;20037;-67
2023/08/12 08:15:59;;;;;;;17.50;12.40;;;20.60;94.00;;;;;;5029199;28;20481;-67
2023/08/12 08:18:25;;;;;;;17.55;12.00;;;20.80;94.90;;;;;;5022698;28;20075;-67
2023/08/12 08:20:50;;;;;;;19.20;12.60;;;20.80;95.00;;;;;;5019418;28;20397;-68
2023/08/12 08:23:16;;;;;;;20.80;12.52;;;20.80;94.90;;;;;;5023403;28;20140;-67
2023/08/12 08:25:41;;;;;;;20.27;12.52;;;20.80;94.70;;;;;;5020728;28;20478;-68
2023/08/12 08:28:08;;;;;;;17.55;11.35;;;20.80;94.20;;;;;;5014544;28;20025;-68
2023/08/12 08:30:33;;;;;;;21.73;13.00;;;20.80;94.90;;;;;;5019327;28;20033;-68
2023/08/12 08:32:58;;;;;;;17.10;11.63;;;20.70;94.50;;;;;;5022070;28;21313;-67
2023/08/12 08:35:24;;;;;;;15.73;11.35;;;20.70;95.10;;;;;;5021071;28;20128;-69
2023/08/12 08:37:50;;;;;;;18.75;11.32;;;20.70;95.20;;;;;;5017956;28;20402;-67
2023/08/12 08:40:15;;;;;;;19.00;12.02;;;20.60;94.80;;;;;;5026022;28;20041;-69
2023/08/12 08:42:44;;;;;;;17.67;12.45;;;20.60;95.30;;;;;;5023756;28;20043;-68
2023/08/12 08:45:13;;;;;;;22.67;12.65;;;20.80;95.40;;;;;;5025225;28;20080;-67
2023/08/12 08:47:40;;;;;;;16.92;12.27;;;20.80;95.30;;;;;;5017470;28;20120;-68
2023/08/12 08:50:08;;;;;;;17.20;12.20;;;20.80;95.30;;;;;;5025131;28;20083;-68
2023/08/12 08:52:33;;;;;;;17.85;12.05;;;21.00;95.30;;;;;;5014490;28;20106;-67
2023/08/12 08:55:01;;;;;;;18.13;11.30;;;20.80;94.10;;;;;;5025662;28;20041;-68
2023/08/12 08:57:28;;;;;;;18.15;10.40;;;20.90;94.20;;;;;;5022021;28;20474;-69
2023/08/12 08:59:53;;;;;;;14.40;9.90;;;21.00;94.30;;;;;;5011297;28;20033;-68
2023/08/12 09:02:19;;;;;;;16.10;8.85;;;21.00;94.10;;;;;;5019087;28;20088;-70
2023/08/12 09:04:46;;;;;;;12.50;8.90;;;21.00;93.20;;;;;;5024764;28;20034;-68
2023/08/12 09:07:13;;;;;;;12.93;8.02;;;21.20;93.70;;;;;;5032309;28;20064;-68
2023/08/12 09:09:44;;;;;;;11.65;8.10;;;21.20;92.90;;;;;;5030359;28;20080;-69
2023/08/12 09:12:10;;;;;;;17.05;9.02;;;21.40;93.20;;;;;;5024298;28;20025;-69
2023/08/12 09:14:36;;;;;;;12.23;8.57;;;21.20;93.00;;;;;;5021370;28;20528;-68
2023/08/12 09:17:02;;;;;;;13.27;8.98;;;21.10;93.30;;;;;;5024799;28;20115;-67
2023/08/12 09:19:28;;;;;;;10.90;8.18;;;21.10;93.10;;;;;;5025459;28;20033;-68
2023/08/12 09:21:54;;;;;;;13.30;8.25;;;21.00;93.70;;;;;;5028162;28;20051;-68
2023/08/12 09:24:26;;;;;;;8.60;6.75;;;21.00;93.50;;;;;;5026562;28;20079;-67
2023/08/12 09:26:52;;;;;;;12.27;6.80;;;21.10;93.90;;;;;;5017728;28;20053;-67
2023/08/12 09:29:18;;;;;;;11.60;6.80;;;21.20;93.80;;;;;;5020328;28;20022;-67
2023/08/12 09:31:43;;;;;;;16.33;7.80;;;21.10;92.60;;;;;;5018378;28;20379;-67
2023/08/12 09:34:09;;;;;;;10.88;6.68;;;21.00;92.70;;;;;;5025959;28;20478;-67
2023/08/12 09:36:35;;;;;;;11.13;6.60;;;21.20;93.80;;;;;;5017689;28;20393;-68
2023/08/12 09:39:05;;;;;;;8.27;6.32;;;21.20;92.60;;;;;;5021190;28;20532;-67
2023/08/12 09:41:31;;;;;;;10.38;6.53;;;21.30;92.70;;;;;;5024488;28;20030;-67
2023/08/12 09:43:57;;;;;;;13.25;6.22;;;21.10;92.30;;;;;;5013392;28;20065;-68
2023/08/12 09:46:23;;;;;;;10.07;6.05;;;21.40;92.90;;;;;;5032864;28;20065;-67
2023/08/12 09:48:51;;;;;;;10.57;6.43;;;21.40;91.80;;;;;;5025344;28;20022;-67
2023/08/12 09:51:17;;;;;;;10.70;5.90;;;21.60;91.50;;;;;;5031144;28;20160;-68
2023/08/12 09:53:43;;;;;;;8.18;5.57;;;21.50;91.00;;;;;;5022959;28;20491;-67
2023/08/12 09:56:11;;;;;;;10.38;5.70;;;21.50;90.50;;;;;;5031677;28;20033;-68
2023/08/12 09:58:37;;;;;;;10.55;6.07;;;21.80;91.00;;;;;;5022566;28;20545;-67
2023/08/12 10:01:07;;;;;;;7.38;5.45;;;22.00;90.90;;;;;;5032080;28;20033;-67
2023/08/12 10:03:34;;;;;;;11.00;5.72;;;22.20;90.70;;;;;;5029905;28;20109;-67
2023/08/12 10:06:01;;;;;;;10.52;6.35;;;22.10;89.60;;;;;;5034927;28;20077;-67
2023/08/12 10:08:27;;;;;;;9.65;6.45;;;22.00;89.70;;;;;;5021912;28;20030;-67
2023/08/12 10:10:53;;;;;;;11.38;5.68;;;21.90;89.60;;;;;;5030166;28;20033;-67
2023/08/12 10:13:20;;;;;;;10.88;5.32;;;21.70;90.00;;;;;;5020608;28;20092;-67
2023/08/12 10:15:46;;;;;;;8.80;5.80;;;21.60;90.90;;;;;;5027123;28;20373;-68
2023/08/12 10:18:13;;;;;;;11.35;6.20;;;21.50;91.90;;;;;;5026351;28;20038;-67
2023/08/12 10:20:39;;;;;;;9.77;6.15;;;21.50;91.20;;;;;;5019804;28;20026;-67
2023/08/12 10:23:05;;;;;;;9.55;5.22;;;21.60;91.00;;;;;;5019866;28;20042;-67
2023/08/12 10:25:34;;;;;;;10.93;5.85;;;21.70;90.80;;;;;;5029203;28;20142;-67
2023/08/12 10:28:00;;;;;;;9.15;6.50;;;21.90;91.50;;;;;;5032106;28;20555;-67
2023/08/12 10:30:29;;;;;;;11.70;5.63;;;21.90;91.40;;;;;;5028276;28;20030;-67
2023/08/12 10:32:54;;;;;;;7.45;5.18;;;22.00;90.80;;;;;;5033362;28;20486;-68
2023/08/12 10:35:20;;;;;;;11.65;5.47;;;22.00;90.50;;;;;;5027287;28;20041;-67
2023/08/12 10:37:50;;;;;;;9.18;5.25;;;21.90;90.20;;;;;;5029331;28;20029;-67
2023/08/12 10:40:21;;;;;;;11.95;5.50;;;22.00;91.50;;;;;;5025691;28;20466;-72
2023/08/12 10:42:48;;;;;;;9.27;5.70;;;21.80;91.30;;;;;;5026383;28;20037;-68
2023/08/12 10:45:15;;;;;;;13.95;5.70;;;21.80;91.00;;;;;;5018660;28;20029;-69
2023/08/12 10:48:09;;;;;;;9.27;5.63;;;21.90;90.40;;;;;;5024017;28;20030;-70
2023/08/12 10:50:34;;;;;;;9.63;5.97;;;21.80;91.00;;;;;;5033244;28;20033;-70
2023/08/12 10:53:24;;;;;;;12.13;6.10;;;21.80;90.50;;;;;;5029773;28;20170;-71
2023/08/12 10:55:50;;;;;;;8.60;5.30;;;21.80;91.20;;;;;;5025118;28;20037;-69
2023/08/12 10:58:27;;;;;;;9.00;5.50;;;21.90;90.40;;;;;;5034741;28;20401;-67
2023/08/12 11:00:56;;;;;;;7.90;5.03;;;21.80;90.80;;;;;;5031144;28;20091;-66
2023/08/12 11:03:22;;;;;;;11.18;5.18;;;21.90;91.40;;;;;;5025679;28;20598;-67
2023/08/12 11:05:48;;;;;;;8.40;5.43;;;21.80;91.10;;;;;;5029899;28;20504;-67
2023/08/12 11:08:14;;;;;;;11.15;5.75;;;21.70;90.90;;;;;;5027695;28;20026;-66
2023/08/12 11:10:39;;;;;;;9.00;5.85;;;21.60;90.80;;;;;;5028589;28;20045;-67
2023/08/12 11:13:05;;;;;;;9.38;5.72;;;21.50;91.10;;;;;;5017811;28;20059;-67
2023/08/12 11:15:36;;;;;;;11.07;6.03;;;21.50;91.40;;;;;;5025144;28;20030;-67
2023/08/12 11:18:04;;;;;;;10.27;5.75;;;21.40;91.90;;;;;;5022483;28;20034;-68
2023/08/12 11:20:30;;;;;;;10.00;6.20;;;21.50;91.80;;;;;;5019494;28;20038;-68
2023/08/12 11:22:58;;;;;;;15.75;7.30;;;21.50;93.00;;;;;;5033650;28;20120;-67
2023/08/12 11:25:24;;;;;;;10.93;7.05;;;21.50;93.40;;;;;;5021891;28;20053;-67
2023/08/12 11:27:49;;;;;;;12.02;7.30;;;21.40;94.00;;;;;;5028947;28;20671;-67
2023/08/12 11:30:19;;;;;;;13.10;9.07;;;21.20;95.00;;;;;;5024820;28;20033;-67
2023/08/12 11:32:47;;;;;;;12.10;8.60;;;20.90;95.30;;;;;;5020077;28;20578;-68
2023/08/12 11:35:15;;;;;;;12.90;8.48;;;20.70;95.80;;;;;;5013384;28;20485;-68
2023/08/12 11:37:42;;;;;;;13.35;9.63;;;20.50;96.30;;;;;;5018318;28;20527;-67
2023/08/12 11:40:09;;;;;;;13.43;9.68;;;20.30;96.70;;;;;;5023089;28;20594;-67
2023/08/12 11:42:39;;;;;;;15.43;10.00;;;20.20;97.00;;;;;;5024080;28;20486;-67
2023/08/12 11:45:06;;;;;;;14.63;10.55;;;20.30;97.50;;;;;;5022273;28;20029;-67
2023/08/12 11:47:32;;;;;;;15.95;11.27;;;20.20;97.70;;;;;;5029352;28;20034;-66
2023/08/12 11:49:58;;;;;;;16.40;12.35;;;20.30;97.90;;;;;;5022916;28;20030;-67
2023/08/12 11:52:24;;;;;;;17.15;12.88;;;20.50;98.00;;;;;;5021761;28;20493;-67
2023/08/12 11:54:50;;;;;;;16.58;12.05;;;20.70;98.00;;;;;;5022949;28;20439;-67
2023/08/12 11:57:17;;;;;;;14.55;11.38;;;20.90;97.90;;;;;;5030393;28;20037;-66
2023/08/12 11:59:43;;;;;;;16.83;12.05;;;20.90;97.60;;;;;;5030826;28;20040;-67
2023/08/12 12:02:10;;;;;;;15.43;11.52;;;21.00;97.80;;;;;;5050992;28;20040;-67
2023/08/12 12:04:36;;;;;;;12.82;11.27;;;21.00;97.30;;;;;;5051504;28;20362;-66
2023/08/12 12:07:06;;;;;;;16.25;11.68;;;21.10;97.40;;;;;;5039769;28;20043;-67
2023/08/12 12:09:31;;;;;;;15.68;11.75;;;21.30;97.60;;;;;;5033227;28;20110;-67
2023/08/12 12:11:57;;;;;;;14.77;11.57;;;21.40;97.40;;;;;;5042409;28;20481;-66
2023/08/12 12:14:25;;;;;;;13.05;10.18;;;21.50;97.00;;;;;;5037926;28;20075;-67
2023/08/12 12:16:50;;;;;;;13.95;8.93;;;21.50;96.60;;;;;;5043041;28;20044;-66
2023/08/12 12:19:20;;;;;;;15.18;9.50;;;21.40;96.00;;;;;;5032578;28;20038;-67
2023/08/12 12:21:48;;;;;;;10.52;9.43;;;21.50;96.50;;;;;;5040134;28;20488;-67
2023/08/12 12:24:14;;;;;;;14.15;9.40;;;21.60;96.90;;;;;;5026862;28;20045;-67
2023/08/12 12:26:39;;;;;;;12.52;9.30;;;21.60;96.20;;;;;;5027750;28;20041;-68
2023/08/12 12:29:06;;;;;;;12.38;9.80;;;21.70;96.50;;;;;;5022631;28;20029;-66
2023/08/12 12:31:33;;;;;;;13.48;9.50;;;21.70;96.70;;;;;;5037135;28;20063;-67
2023/08/12 12:34:00;;;;;;;14.18;9.43;;;21.80;96.20;;;;;;5040868;28;20101;-66